Time;durP1;ratioP1;P1;durP2;ratioP2;P2;SDS_P1;SDS_P2;PMS_P1;PMS_P2;Temp;Humidity;BMP_temperature;BMP_pressure;BME280_temperature;BME280_humidity;BME280_pressure;Samples;Min_cycle;Max_cycle;Signal;HPM_P1;HPM_P2
2022/10/30 05:14:50;;;;;;;;;;;21.40;99.90;;;;;;5968674;23;19920;-78
2022/10/30 05:17:19;;;;;;;;;;;21.40;99.90;;;;;;4975880;28;19933;-77
2022/10/30 05:19:45;;;;;;;;;;;21.40;99.90;;;;;;4975809;28;19930;-77
2022/10/30 05:22:12;;;;;;;;;;;21.40;99.90;;;;;;4975812;28;19926;-77
2022/10/30 05:24:39;;;;;;;;;;;21.40;99.90;;;;;;4975676;28;19973;-77
2022/10/30 05:27:05;;;;;;;;;;;21.40;99.90;;;;;;4975714;28;19950;-77
2022/10/30 05:29:32;;;;;;;;;;;21.40;99.90;;;;;;4978785;28;19930;-78
2022/10/30 05:31:58;;;;;;;;;;;21.40;99.90;;;;;;4979439;28;19930;-78
2022/10/30 05:34:26;;;;;;;;;;;21.50;99.90;;;;;;4978716;28;20326;-78
2022/10/30 05:36:53;;;;;;;;;;;21.40;99.90;;;;;;4976592;28;20017;-78
2022/10/30 05:39:20;;;;;;;;;;;21.40;99.90;;;;;;4977955;28;19930;-78
2022/10/30 05:41:46;;;;;;;;;;;21.40;99.90;;;;;;4978358;28;19930;-78
2022/10/30 05:44:13;;;;;;;;;;;21.50;99.90;;;;;;4979925;28;19930;-78
2022/10/30 05:46:39;;;;;;;;;;;21.50;99.90;;;;;;4980936;28;19927;-78
2022/10/30 05:49:06;;;;;;;;;;;21.50;99.90;;;;;;4981487;28;19931;-78
2022/10/30 05:51:34;;;;;;;;;;;21.50;99.90;;;;;;4982385;28;19926;-78
2022/10/30 05:54:00;;;;;;;;;;;21.50;99.90;;;;;;4983257;28;19926;-78
2022/10/30 05:56:27;;;;;;;;;;;21.50;99.90;;;;;;4984298;28;19953;-78
2022/10/30 05:58:54;;;;;;;;;;;21.50;99.90;;;;;;4982050;28;19949;-78
2022/10/30 06:01:20;;;;;;;;;;;21.50;99.90;;;;;;4983879;28;19930;-78
2022/10/30 06:03:47;;;;;;;;;;;21.50;99.90;;;;;;4983635;28;19933;-79
2022/10/30 06:06:13;;;;;;;;;;;21.50;99.90;;;;;;4982037;28;19926;-79
2022/10/30 06:08:41;;;;;;;;;;;21.50;99.90;;;;;;4978570;28;19926;-78
2022/10/30 06:11:08;;;;;;;;;;;21.50;99.90;;;;;;4976360;28;19926;-78
2022/10/30 06:13:34;;;;;;;;;;;21.50;99.90;;;;;;4975719;28;19926;-78
2022/10/30 06:16:01;;;;;;;;;;;21.50;99.90;;;;;;4975735;28;19927;-77
2022/10/30 06:18:27;;;;;;;;;;;21.50;99.90;;;;;;4974956;28;19926;-77
2022/10/30 06:20:54;;;;;;;;;;;21.50;99.90;;;;;;4975283;28;19926;-77
2022/10/30 06:23:21;;;;;;;;;;;21.50;99.90;;;;;;4975232;28;19926;-77
2022/10/30 06:25:49;;;;;;;;;;;21.50;99.90;;;;;;4977215;28;19926;-78
2022/10/30 06:28:15;;;;;;;;;;;21.50;99.90;;;;;;4975129;28;19926;-78
2022/10/30 06:30:42;;;;;;;;;;;21.50;99.90;;;;;;4975091;28;20009;-78
2022/10/30 06:33:09;;;;;;;;;;;21.50;99.90;;;;;;4975291;28;20286;-78
2022/10/30 06:35:35;;;;;;;;;;;21.50;99.90;;;;;;4976108;28;19936;-78
2022/10/30 06:38:03;;;;;;;;;;;21.50;99.90;;;;;;4976980;28;19926;-78
2022/10/30 06:40:30;;;;;;;;;;;21.50;99.90;;;;;;4976260;28;19926;-78
2022/10/30 06:42:58;;;;;;;;;;;21.50;99.90;;;;;;4975130;28;20374;-78
2022/10/30 06:45:25;;;;;;;;;;;21.50;99.90;;;;;;4975545;28;19926;-78
2022/10/30 06:47:51;;;;;;;;;;;21.50;99.90;;;;;;4978852;28;19926;-78
2022/10/30 06:50:19;;;;;;;;;;;21.50;99.90;;;;;;4978823;28;19983;-78
2022/10/30 06:52:47;;;;;;;;;;;21.50;99.90;;;;;;4978620;28;19937;-78
2022/10/30 06:55:13;;;;;;;;;;;21.50;99.90;;;;;;4978466;28;20386;-78
2022/10/30 06:57:40;;;;;;;;;;;21.50;99.90;;;;;;4978385;28;20382;-78
2022/10/30 07:00:09;;;;;;;;;;;21.50;99.90;;;;;;4978634;28;20302;-78
2022/10/30 07:02:35;;;;;;;;;;;21.50;99.90;;;;;;4979481;28;19926;-78
2022/10/30 07:05:02;;;;;;;;;;;21.50;99.90;;;;;;4979588;28;19926;-78
2022/10/30 07:07:28;;;;;;;;;;;21.50;99.90;;;;;;4981720;28;20282;-78
2022/10/30 07:09:55;;;;;;;;;;;21.50;99.90;;;;;;4979923;28;19933;-78
2022/10/30 07:12:22;;;;;;;;;;;21.50;99.90;;;;;;4981125;28;19926;-78
2022/10/30 07:14:48;;;;;;;;;;;21.50;99.90;;;;;;4979323;28;19933;-77
2022/10/30 07:17:16;;;;;;;;;;;21.50;99.90;;;;;;4978222;28;19926;-77
2022/10/30 07:19:42;;;;;;;;;;;21.50;99.90;;;;;;4978565;28;20305;-77
2022/10/30 07:22:09;;;;;;;;;;;21.50;99.90;;;;;;4978892;28;20405;-78
2022/10/30 07:24:36;;;;;;;;;;;21.50;99.90;;;;;;4978361;28;20349;-78
2022/10/30 07:27:02;;;;;;;;;;;21.50;99.90;;;;;;4977763;28;19926;-78
2022/10/30 07:29:29;;;;;;;;;;;21.50;99.90;;;;;;4979261;28;19927;-78
2022/10/30 07:31:55;;;;;;;;;;;21.50;99.90;;;;;;4978519;28;19932;-78
2022/10/30 07:34:23;;;;;;;;;;;21.50;99.90;;;;;;4978066;28;19926;-78
2022/10/30 07:36:50;;;;;;;;;;;21.50;99.90;;;;;;4978675;28;19934;-78
2022/10/30 07:39:16;;;;;;;;;;;21.50;99.90;;;;;;4978928;28;19936;-78
2022/10/30 07:41:43;;;;;;;;;;;21.50;99.90;;;;;;4978379;28;19933;-78
2022/10/30 07:44:09;;;;;;;;;;;21.50;99.90;;;;;;4977855;28;20002;-78
2022/10/30 07:46:36;;;;;;;;;;;21.50;99.90;;;;;;4979012;28;19937;-78
2022/10/30 07:49:02;;;;;;;;;;;21.50;99.90;;;;;;4979423;28;19933;-78
2022/10/30 07:51:30;;;;;;;;;;;21.50;99.90;;;;;;4978228;28;19926;-78
2022/10/30 07:53:57;;;;;;;;;;;21.50;99.90;;;;;;4979649;28;19926;-78
2022/10/30 07:56:23;;;;;;;;;;;21.50;99.90;;;;;;4979399;28;19933;-77
2022/10/30 07:58:50;;;;;;;;;;;21.50;99.90;;;;;;4980428;28;19926;-78
2022/10/30 08:01:16;;;;;;;;;;;21.50;99.90;;;;;;4980589;28;19937;-78
2022/10/30 08:03:43;;;;;;;;;;;21.50;99.90;;;;;;4980471;28;19933;-79
2022/10/30 08:06:10;;;;;;;;;;;21.50;99.90;;;;;;4980612;28;19926;-77
2022/10/30 08:08:38;;;;;;;;;;;21.50;99.90;;;;;;4980290;28;19930;-75
2022/10/30 08:11:05;;;;;;;;;;;21.50;99.90;;;;;;4982061;28;19933;-77
2022/10/30 08:13:32;;;;;;;;;;;21.50;99.90;;;;;;4982320;28;19926;-77
2022/10/30 08:15:59;;;;;;;;;;;21.50;99.90;;;;;;4982715;28;19933;-77
2022/10/30 08:18:26;;;;;;;;;;;21.50;99.90;;;;;;4983191;28;19926;-78
2022/10/30 08:20:53;;;;;;;;;;;21.50;99.90;;;;;;4982883;28;20370;-76
2022/10/30 08:23:20;;;;;;;;;;;21.50;99.90;;;;;;4983019;28;19962;-79
2022/10/30 08:25:49;;;;;;;;;;;21.50;99.90;;;;;;4986530;28;19985;-79
2022/10/30 08:28:16;;;;;;;;;;;21.50;99.90;;;;;;4988496;28;19926;-79
2022/10/30 08:30:43;;;;;;;;;;;21.50;99.90;;;;;;4985293;28;19926;-79
2022/10/30 08:33:12;;;;;;;;;;;21.50;99.90;;;;;;4984517;28;19926;-79
2022/10/30 08:35:39;;;;;;;;;;;21.50;99.90;;;;;;4984730;28;19926;-76
2022/10/30 08:38:06;;;;;;;;;;;21.50;99.90;;;;;;4982466;28;19993;-77
2022/10/30 08:40:33;;;;;;;;;;;21.40;99.90;;;;;;4981349;28;19927;-77
2022/10/30 08:43:01;;;;;;;;;;;21.40;99.90;;;;;;4983128;28;19927;-76
2022/10/30 08:45:28;;;;;;;;;;;21.40;99.90;;;;;;4978967;28;19934;-77
2022/10/30 08:47:58;;;;;;;;;;;21.40;99.90;;;;;;4976374;28;19943;-77
2022/10/30 08:50:24;;;;;;;;;;;21.40;99.90;;;;;;4976029;28;19933;-77
2022/10/30 08:52:51;;;;;;;;;;;21.40;99.90;;;;;;4976223;28;19958;-76
2022/10/30 08:55:25;;;;;;;;;;;21.40;99.90;;;;;;4976013;28;19938;-76
2022/10/30 08:57:51;;;;;;;;;;;21.40;99.90;;;;;;4980442;28;19981;-81
2022/10/30 09:00:19;;;;;;;;;;;21.40;99.90;;;;;;4980998;28;20278;-81
2022/10/30 09:02:46;;;;;;;;;;;21.40;99.90;;;;;;4980478;28;19930;-81
2022/10/30 09:05:12;;;;;;;;;;;21.40;99.90;;;;;;4979624;28;19926;-79
2022/10/30 09:07:39;;;;;;;;;;;21.40;99.90;;;;;;4977866;28;19930;-79
2022/10/30 09:10:06;;;;;;;;;;;21.40;99.90;;;;;;4978070;28;19933;-79
2022/10/30 09:12:33;;;;;;;;;;;21.40;99.90;;;;;;4977595;28;19926;-79
2022/10/30 09:14:59;;;;;;;;;;;21.40;99.90;;;;;;4976858;28;20406;-81
2022/10/30 09:17:27;;;;;;;;;;;21.40;99.90;;;;;;4976979;28;19926;-81
2022/10/30 09:19:54;;;;;;;;;;;21.40;99.90;;;;;;4977597;28;19926;-81
2022/10/30 09:22:20;;;;;;;;;;;21.40;99.90;;;;;;4978173;28;19930;-81
2022/10/30 09:24:47;;;;;;;;;;;21.40;99.90;;;;;;4978560;28;19926;-80
2022/10/30 09:27:14;;;;;;;;;;;21.40;99.90;;;;;;4979344;28;19927;-81
2022/10/30 09:29:40;;;;;;;;;;;21.40;99.90;;;;;;4978456;28;20414;-80
2022/10/30 09:32:09;;;;;;;;;;;21.40;99.90;;;;;;4976965;28;20013;-80
2022/10/30 09:34:37;;;;;;;;;;;21.50;99.90;;;;;;4977048;28;19930;-80
2022/10/30 09:37:03;;;;;;;;;;;21.50;99.90;;;;;;4977751;28;20413;-81
2022/10/30 09:39:30;;;;;;;;;;;21.50;99.90;;;;;;4977595;28;19933;-81
2022/10/30 09:42:06;;;;;;;;;;;21.50;99.90;;;;;;4976356;28;19926;-81
2022/10/30 09:44:39;;;;;;;;;;;21.50;99.90;;;;;;4978630;28;19925;-81
2022/10/30 09:47:10;;;;;;;;;;;21.40;99.90;;;;;;4976928;28;19933;-80
2022/10/30 09:49:46;;;;;;;;;;;21.50;99.90;;;;;;4978774;28;19933;-81
2022/10/30 09:52:20;;;;;;;;;;;21.50;99.90;;;;;;4982024;28;20025;-84
2022/10/30 09:54:54;;;;;;;;;;;21.50;99.90;;;;;;4979013;28;19968;-82
2022/10/30 09:57:24;;;;;;;;;;;21.50;99.90;;;;;;4977231;28;19930;-80
2022/10/30 09:59:58;;;;;;;;;;;21.50;99.90;;;;;;4977249;28;19930;-80
2022/10/30 10:02:30;;;;;;;;;;;21.50;99.90;;;;;;4977625;28;19926;-80
2022/10/30 10:04:59;;;;;;;;;;;21.50;99.90;;;;;;4977317;28;19926;-80
2022/10/30 10:07:28;;;;;;;;;;;21.50;99.90;;;;;;4977680;28;19926;-81
2022/10/30 10:09:58;;;;;;;;;;;21.50;99.90;;;;;;4977148;28;19977;-79
2022/10/30 10:12:27;;;;;;;;;;;21.50;99.90;;;;;;4977855;28;20013;-79
2022/10/30 10:14:56;;;;;;;;;;;21.60;99.90;;;;;;4978271;28;19926;-80
2022/10/30 10:17:25;;;;;;;;;;;21.50;99.90;;;;;;4977665;28;19932;-79
2022/10/30 10:19:55;;;;;;;;;;;21.60;99.90;;;;;;4978864;28;20291;-78
2022/10/30 10:22:26;;;;;;;;;;;21.60;99.90;;;;;;4980752;28;19926;-77
2022/10/30 10:24:54;;;;;;;;;;;21.60;99.90;;;;;;4980051;28;19926;-77
2022/10/30 10:27:23;;;;;;;;;;;21.60;99.90;;;;;;4979532;28;19930;-77
2022/10/30 10:29:55;;;;;;;;;;;21.50;99.90;;;;;;4979732;28;19926;-80
2022/10/30 10:32:40;;;;;;;;;;;21.60;99.90;;;;;;4981291;28;20393;-80
2022/10/30 10:35:24;;;;;;;;;;;21.60;99.90;;;;;;4970408;28;19932;-81
2022/10/30 10:37:57;;;;;;;;;;;21.60;99.90;;;;;;4981298;28;19968;-80
2022/10/30 10:40:28;;;;;;;;;;;21.50;99.90;;;;;;4981477;28;19926;-79
2022/10/30 10:43:02;;;;;;;;;;;21.60;99.90;;;;;;4981035;28;20024;-79
2022/10/30 10:45:32;;;;;;;;;;;21.60;99.90;;;;;;4983319;28;19926;-80
2022/10/30 10:48:16;;;;;;;;;;;21.60;99.90;;;;;;4982882;28;20059;-79
2022/10/30 10:50:48;;;;;;;;;;;21.70;99.90;;;;;;4980710;28;19972;-81
2022/10/30 10:53:19;;;;;;;;;;;21.70;99.90;;;;;;4979134;28;19926;-80
2022/10/30 10:55:48;;;;;;;;;;;21.70;99.90;;;;;;4981535;28;20341;-80
2022/10/30 10:58:25;;;;;;;;;;;21.80;99.90;;;;;;4979226;28;19930;-78
2022/10/30 11:00:52;;;;;;;;;;;21.80;99.90;;;;;;4980281;28;20305;-80
2022/10/30 11:03:20;;;;;;;;;;;21.80;99.90;;;;;;4982535;28;19926;-80
2022/10/30 11:05:50;;;;;;;;;;;21.80;99.90;;;;;;4985071;28;19926;-78
2022/10/30 11:08:19;;;;;;;;;;;21.90;99.90;;;;;;4980744;28;20012;-78
2022/10/30 11:10:46;;;;;;;;;;;21.80;99.90;;;;;;4979973;28;19980;-77
2022/10/30 11:13:13;;;;;;;;;;;21.90;99.90;;;;;;4980196;28;19926;-77
2022/10/30 11:15:45;;;;;;;;;;;21.80;99.90;;;;;;4978853;28;19977;-78
2022/10/30 11:18:14;;;;;;;;;;;21.80;99.90;;;;;;4978917;28;20354;-78
2022/10/30 11:20:42;;;;;;;;;;;21.80;99.90;;;;;;4978621;28;20309;-78
2022/10/30 11:23:27;;;;;;;;;;;21.80;99.90;;;;;;4979153;28;19926;-77
2022/10/30 11:25:55;;;;;;;;;;;21.80;99.90;;;;;;4978748;28;19927;-77
2022/10/30 11:28:31;;;;;;;;;;;21.80;99.90;;;;;;4978947;28;20293;-77
2022/10/30 11:31:16;;;;;;;;;;;21.80;99.90;;;;;;4977553;28;19926;-78
2022/10/30 11:33:42;;;;;;;;;;;21.80;99.90;;;;;;4981316;28;19930;-78
2022/10/30 11:36:09;;;;;;;;;;;21.80;99.90;;;;;;4979321;28;19933;-79
2022/10/30 11:38:36;;;;;;;;;;;21.80;99.90;;;;;;4979444;28;19926;-80
2022/10/30 11:41:04;;;;;;;;;;;21.80;99.90;;;;;;4979229;28;19926;-77
2022/10/30 11:43:31;;;;;;;;;;;21.80;99.90;;;;;;4977838;28;20037;-77
2022/10/30 11:45:58;;;;;;;;;;;21.80;99.90;;;;;;4978392;28;19933;-76
2022/10/30 11:48:27;;;;;;;;;;;21.90;99.90;;;;;;4979059;28;19933;-80
2022/10/30 11:50:56;;;;;;;;;;;21.90;99.90;;;;;;4989532;23;19926;-83
2022/10/30 11:53:29;;;;;;;;;;;21.90;99.90;;;;;;4982923;28;19926;-79
2022/10/30 11:55:56;;;;;;;;;;;21.90;99.90;;;;;;4984703;28;19926;-80
2022/10/30 11:58:28;;;;;;;;;;;21.90;99.90;;;;;;4981954;28;20297;-80
2022/10/30 12:01:02;;;;;;;;;;;21.90;99.90;;;;;;4983932;28;19933;-79
2022/10/30 12:03:33;;;;;;;;;;;21.90;99.90;;;;;;4984331;28;19926;-80
2022/10/30 12:06:10;;;;;;;;;;;21.80;99.90;;;;;;4984042;28;19933;-80
2022/10/30 12:08:36;;;;;;;;;;;21.80;99.90;;;;;;4983225;28;20381;-80
2022/10/30 12:11:04;;;;;;;;;;;21.80;99.90;;;;;;4983817;28;19926;-80
2022/10/30 12:13:36;;;;;;;;;;;21.80;99.90;;;;;;4983252;28;19934;-80
2022/10/30 12:16:07;;;;;;;;;;;21.80;99.90;;;;;;4982826;28;20398;-80
2022/10/30 12:18:34;;;;;;;;;;;21.80;99.90;;;;;;4983411;28;19926;-80
2022/10/30 12:21:01;;;;;;;;;;;21.80;99.90;;;;;;4983770;28;19926;-80
2022/10/30 12:23:28;;;;;;;;;;;21.80;99.90;;;;;;4986963;28;19926;-80
2022/10/30 12:25:57;;;;;;;;;;;21.80;99.90;;;;;;4985308;28;19926;-80
2022/10/30 12:28:24;;;;;;;;;;;21.90;99.90;;;;;;4985756;28;19941;-80
2022/10/30 12:30:54;;;;;;;;;;;21.80;99.90;;;;;;4982555;28;19925;-79
2022/10/30 12:33:22;;;;;;;;;;;21.80;99.90;;;;;;4977139;28;19930;-78
2022/10/30 12:35:52;;;;;;;;;;;21.80;99.90;;;;;;4976287;28;20381;-78
2022/10/30 12:38:21;;;;;;;;;;;21.80;99.90;;;;;;4976645;28;19926;-78
2022/10/30 12:40:55;;;;;;;;;;;21.80;99.90;;;;;;4976151;28;19933;-78
2022/10/30 12:43:25;;;;;;;;;;;21.80;99.90;;;;;;4976533;28;19937;-78
2022/10/30 12:45:56;;;;;;;;;;;21.80;99.90;;;;;;4976733;28;19930;-78
2022/10/30 12:48:25;;;;;;;;;;;21.80;99.90;;;;;;4976461;28;19930;-78
2022/10/30 12:50:56;;;;;;;;;;;21.80;99.90;;;;;;4976072;28;19934;-78
2022/10/30 12:53:26;;;;;;;;;;;21.80;99.90;;;;;;4976060;28;20025;-78
2022/10/30 12:55:56;;;;;;;;;;;21.80;99.90;;;;;;4976166;28;19976;-78
2022/10/30 12:58:27;;;;;;;;;;;21.80;99.90;;;;;;4976215;28;19933;-78
2022/10/30 13:00:56;;;;;;;;;;;21.80;99.90;;;;;;4976120;28;19926;-77
2022/10/30 13:03:27;;;;;;;;;;;21.80;99.90;;;;;;4976020;28;19933;-77
2022/10/30 13:05:55;;;;;;;;;;;21.80;99.90;;;;;;4975807;28;20294;-77
2022/10/30 13:08:25;;;;;;;;;;;21.80;99.90;;;;;;4976036;28;19985;-77
2022/10/30 13:10:53;;;;;;;;;;;21.80;99.90;;;;;;4976507;28;20046;-77
2022/10/30 13:13:21;;;;;;;;;;;21.80;99.90;;;;;;4975930;28;19930;-77
2022/10/30 13:15:49;;;;;;;;;;;21.80;99.90;;;;;;4976002;28;19926;-77
2022/10/30 13:18:18;;;;;;;;;;;21.80;99.90;;;;;;4975916;28;19926;-77
2022/10/30 13:20:52;;;;;;;;;;;21.80;99.90;;;;;;4975747;28;19926;-77
2022/10/30 13:23:21;;;;;;;;;;;21.80;99.90;;;;;;4975850;28;19930;-77
2022/10/30 13:25:54;;;;;;;;;;;21.80;99.90;;;;;;4975707;28;19926;-78
2022/10/30 13:28:23;;;;;;;;;;;21.80;99.90;;;;;;4975747;28;19930;-78
2022/10/30 13:30:58;;;;;;;;;;;21.70;99.90;;;;;;4975629;28;19933;-78
2022/10/30 13:33:29;;;;;;;;;;;21.70;99.90;;;;;;4975650;28;19930;-78
2022/10/30 13:35:58;;;;;;;;;;;21.70;99.90;;;;;;4975568;28;19934;-78
2022/10/30 13:38:31;;;;;;;;;;;21.70;99.90;;;;;;4975534;28;19930;-78
2022/10/30 13:41:00;;;;;;;;;;;21.70;99.90;;;;;;4975521;28;19926;-78
2022/10/30 13:43:30;;;;;;;;;;;21.70;99.90;;;;;;4975535;28;19929;-78
2022/10/30 13:46:04;;;;;;;;;;;21.70;99.90;;;;;;4975492;28;19930;-78
2022/10/30 13:48:40;;;;;;;;;;;21.80;99.90;;;;;;4975541;28;19930;-78
2022/10/30 13:51:26;;;;;;;;;;;21.70;99.90;;;;;;4975218;28;19929;-78
2022/10/30 13:54:00;;;;;;;;;;;21.70;99.90;;;;;;4975177;28;19926;-78
2022/10/30 13:56:27;;;;;;;;;;;21.70;99.90;;;;;;4975346;28;19936;-78
2022/10/30 13:58:58;;;;;;;;;;;21.70;99.90;;;;;;4975064;28;20373;-78
2022/10/30 14:01:27;;;;;;;;;;;21.70;99.90;;;;;;4975323;28;19926;-78
2022/10/30 14:03:59;;;;;;;;;;;21.70;99.90;;;;;;4974990;28;20337;-78
2022/10/30 14:06:32;;;;;;;;;;;21.70;99.90;;;;;;4975313;28;19927;-78
2022/10/30 14:09:02;;;;;;;;;;;21.70;99.90;;;;;;4975263;28;19977;-78
2022/10/30 14:11:29;;;;;;;;;;;21.80;99.90;;;;;;4975998;28;19926;-78
2022/10/30 14:13:56;;;;;;;;;;;21.70;99.90;;;;;;4975170;28;19933;-78
2022/10/30 14:16:34;;;;;;;;;;;21.70;99.90;;;;;;4975080;28;19930;-78
2022/10/30 14:19:03;;;;;;;;;;;21.70;99.90;;;;;;4975126;28;19938;-78
2022/10/30 14:21:31;;;;;;;;;;;21.70;99.90;;;;;;4974710;28;20275;-78
2022/10/30 14:24:02;;;;;;;;;;;21.70;99.90;;;;;;4975029;28;19933;-78
2022/10/30 14:26:28;;;;;;;;;;;21.70;99.90;;;;;;4975143;28;19934;-78
2022/10/30 14:28:55;;;;;;;;;;;21.70;99.90;;;;;;4975055;28;19933;-78
2022/10/30 14:31:33;;;;;;;;;;;21.70;99.90;;;;;;4974929;28;19965;-78
2022/10/30 14:34:00;;;;;;;;;;;21.70;99.90;;;;;;4975071;28;19954;-78
2022/10/30 14:36:48;;;;;;;;;;;21.70;99.90;;;;;;4974908;28;19965;-78
2022/10/30 14:39:28;;;;;;;;;;;21.70;99.90;;;;;;4974911;28;19926;-78
2022/10/30 14:42:00;;;;;;;;;;;21.70;99.90;;;;;;4974576;28;19972;-78
2022/10/30 14:44:49;;;;;;;;;;;21.70;99.90;;;;;;4974948;28;19949;-78
2022/10/30 14:47:35;;;;;;;;;;;21.60;99.90;;;;;;4974924;28;19933;-78
2022/10/30 14:50:02;;;;;;;;;;;21.60;99.90;;;;;;4974630;28;19926;-78
2022/10/30 14:52:39;;;;;;;;;;;21.60;99.90;;;;;;4974842;28;19943;-78
2022/10/30 14:55:18;;;;;;;;;;;21.60;99.90;;;;;;4974842;28;19926;-78
2022/10/30 14:57:46;;;;;;;;;;;21.70;99.90;;;;;;4974736;28;19933;-78
2022/10/30 15:00:31;;;;;;;;;;;21.60;99.90;;;;;;4974686;28;19993;-78
2022/10/30 15:03:02;;;;;;;;;;;21.60;99.90;;;;;;4974739;28;19926;-78
2022/10/30 15:05:39;;;;;;;;;;;21.60;99.90;;;;;;4974455;28;20334;-78
2022/10/30 15:08:14;;;;;;;;;;;21.60;99.90;;;;;;4977769;28;19926;-78
2022/10/30 15:10:50;;;;;;;;;;;21.60;99.90;;;;;;4978144;28;19926;-78
2022/10/30 15:13:18;;;;;;;;;;;21.60;99.90;;;;;;4978223;28;19925;-78
2022/10/30 15:15:46;;;;;;;;;;;21.60;99.90;;;;;;4978071;28;19933;-78
2022/10/30 15:18:15;;;;;;;;;;;21.60;99.90;;;;;;4978035;28;20017;-78
2022/10/30 15:20:42;;;;;;;;;;;21.60;99.90;;;;;;4977991;28;19933;-78
2022/10/30 15:23:13;;;;;;;;;;;21.60;99.90;;;;;;4978027;28;19933;-78
2022/10/30 15:25:45;;;;;;;;;;;21.60;99.90;;;;;;4978016;28;19926;-78
2022/10/30 15:28:15;;;;;;;;;;;21.60;99.90;;;;;;4977920;28;19926;-78
2022/10/30 15:30:57;;;;;;;;;;;21.60;99.90;;;;;;4977729;28;19930;-78
2022/10/30 15:33:24;;;;;;;;;;;21.60;99.90;;;;;;4977818;28;19937;-78
2022/10/30 15:35:50;;;;;;;;;;;21.60;99.90;;;;;;4977831;28;19931;-78
2022/10/30 15:38:18;;;;;;;;;;;21.60;99.90;;;;;;4977656;28;19932;-78
2022/10/30 15:40:45;;;;;;;;;;;21.60;99.90;;;;;;4977595;28;19982;-78
2022/10/30 15:43:13;;;;;;;;;;;21.60;99.90;;;;;;4977664;28;19933;-78
2022/10/30 15:45:40;;;;;;;;;;;21.60;99.90;;;;;;4977241;28;20305;-78
2022/10/30 15:48:09;;;;;;;;;;;21.60;99.90;;;;;;4977527;28;19929;-78
2022/10/30 15:50:36;;;;;;;;;;;21.60;99.90;;;;;;4977242;28;19926;-78
2022/10/30 15:53:03;;;;;;;;;;;21.60;99.90;;;;;;4977139;28;20310;-78
2022/10/30 15:55:31;;;;;;;;;;;21.60;99.90;;;;;;4977487;28;19933;-78
2022/10/30 15:57:59;;;;;;;;;;;21.60;99.90;;;;;;4977252;28;19926;-78
2022/10/30 16:00:27;;;;;;;;;;;21.50;99.90;;;;;;4977228;28;19926;-78
2022/10/30 16:03:00;;;;;;;;;;;21.60;99.90;;;;;;4977278;28;19934;-78
2022/10/30 16:05:27;;;;;;;;;;;21.50;99.90;;;;;;4977251;28;19930;-77
2022/10/30 16:07:55;;;;;;;;;;;21.50;99.90;;;;;;4977174;28;20024;-77
2022/10/30 16:10:22;;;;;;;;;;;21.50;99.90;;;;;;4977081;28;19933;-77
2022/10/30 16:12:51;;;;;;;;;;;21.50;99.90;;;;;;4977060;28;19933;-77
2022/10/30 16:15:24;;;;;;;;;;;21.50;99.90;;;;;;4977082;28;20274;-77
2022/10/30 16:17:58;;;;;;;;;;;21.50;99.90;;;;;;4976682;28;19926;-77
2022/10/30 16:20:26;;;;;;;;;;;21.50;99.90;;;;;;4976921;28;19938;-77
2022/10/30 16:22:53;;;;;;;;;;;21.50;99.90;;;;;;4976899;28;19926;-77
2022/10/30 16:25:21;;;;;;;;;;;21.50;99.90;;;;;;4976834;28;19926;-77
2022/10/30 16:27:47;;;;;;;;;;;21.50;99.90;;;;;;4976511;28;20279;-77
2022/10/30 16:30:16;;;;;;;;;;;21.50;99.90;;;;;;4976338;28;20401;-77
2022/10/30 16:32:44;;;;;;;;;;;21.50;99.90;;;;;;4976369;28;20294;-77
2022/10/30 16:35:11;;;;;;;;;;;21.50;99.90;;;;;;4976609;28;19926;-77
2022/10/30 16:37:39;;;;;;;;;;;21.50;99.90;;;;;;4976562;28;20313;-78
2022/10/30 16:40:09;;;;;;;;;;;21.50;99.90;;;;;;4976442;28;19933;-78
2022/10/30 16:42:35;;;;;;;;;;;21.50;99.90;;;;;;4976215;28;20394;-78
2022/10/30 16:45:25;;;;;;;;;;;21.50;99.90;;;;;;4976489;28;19926;-78
2022/10/30 16:47:57;;;;;;;;;;;21.50;99.90;;;;;;4976045;28;19926;-78
2022/10/30 16:50:27;;;;;;;;;;;21.50;99.90;;;;;;4976231;28;19949;-77
2022/10/30 16:52:53;;;;;;;;;;;21.50;99.90;;;;;;4975997;28;20305;-77
2022/10/30 16:55:21;;;;;;;;;;;21.40;99.90;;;;;;4976220;28;19929;-77
2022/10/30 16:57:52;;;;;;;;;;;21.50;99.90;;;;;;4976195;28;19927;-77
2022/10/30 17:00:19;;;;;;;;;;;21.40;99.90;;;;;;4976824;28;20286;-77
2022/10/30 17:02:47;;;;;;;;;;;21.40;99.90;;;;;;4975773;28;19933;-76
2022/10/30 17:05:20;;;;;;;;;;;21.50;99.90;;;;;;4976428;28;19926;-77
2022/10/30 17:07:53;;;;;;;;;;;21.40;99.90;;;;;;4976431;28;19926;-77
2022/10/30 17:10:29;;;;;;;;;;;21.40;99.90;;;;;;4976190;28;19926;-78
2022/10/30 17:13:25;;;;;;;;;;;21.40;99.90;;;;;;4977489;28;19933;-79
2022/10/30 17:15:52;;;;;;;;;;;21.40;99.90;;;;;;4976760;28;19933;-78
2022/10/30 17:18:20;;;;;;;;;;;21.50;99.90;;;;;;4976549;28;20387;-78
2022/10/30 17:20:57;;;;;;;;;;;21.40;99.90;;;;;;4976868;28;20274;-77
2022/10/30 17:23:23;;;;;;;;;;;21.50;99.90;;;;;;4976844;28;19926;-82
2022/10/30 17:25:50;;;;;;;;;;;21.50;99.90;;;;;;4976735;28;19933;-80
2022/10/30 17:28:25;;;;;;;;;;;21.50;99.90;;;;;;4977071;28;19926;-82
2022/10/30 17:30:51;;;;;;;;;;;21.50;99.90;;;;;;4976367;28;20386;-83
2022/10/30 17:33:36;;;;;;;;;;;21.50;99.90;;;;;;4977787;28;19926;-79
2022/10/30 17:36:04;;;;;;;;;;;21.50;99.90;;;;;;4977674;28;19926;-80
2022/10/30 17:38:31;;;;;;;;;;;21.50;99.90;;;;;;4976832;28;19933;-80
2022/10/30 17:40:58;;;;;;;;;;;21.50;99.90;;;;;;4976762;28;20378;-81
2022/10/30 17:43:27;;;;;;;;;;;21.50;99.90;;;;;;4976701;28;19933;-80
2022/10/30 17:45:53;;;;;;;;;;;21.60;99.90;;;;;;4976939;28;19926;-81
2022/10/30 17:48:21;;;;;;;;;;;21.60;99.90;;;;;;4976715;28;19926;-82
2022/10/30 17:50:49;;;;;;;;;;;21.60;99.90;;;;;;4978065;28;20271;-81
2022/10/30 17:53:20;;;;;;;;;;;21.60;99.90;;;;;;4977335;28;19937;-81
2022/10/30 17:55:48;;;;;;;;;;;21.60;99.90;;;;;;4977224;28;19933;-81
2022/10/30 17:58:14;;;;;;;;;;;21.60;99.90;;;;;;4976896;28;19926;-82
2022/10/30 18:00:41;;;;;;;;;;;21.60;99.90;;;;;;4978193;28;20382;-81
2022/10/30 18:03:07;;;;;;;;;;;21.60;99.90;;;;;;4978050;28;20310;-81
2022/10/30 18:05:34;;;;;;;;;;;21.70;99.90;;;;;;4977905;28;20310;-83
2022/10/30 18:08:01;;;;;;;;;;;21.60;99.90;;;;;;4978983;28;19927;-83
2022/10/30 18:10:29;;;;;;;;;;;21.60;99.90;;;;;;4977817;28;19933;-83
2022/10/30 18:12:56;;;;;;;;;;;21.60;99.90;;;;;;4979337;28;19930;-81
2022/10/30 18:15:25;;;;;;;;;;;21.60;99.90;;;;;;4978517;28;19926;-83
2022/10/30 18:17:52;;;;;;;;;;;21.60;99.90;;;;;;4978990;28;19933;-82
2022/10/30 18:20:18;;;;;;;;;;;21.60;99.90;;;;;;4979739;28;19926;-83
2022/10/30 18:22:45;;;;;;;;;;;21.60;99.90;;;;;;4979163;28;20275;-82
2022/10/30 18:25:15;;;;;;;;;;;21.60;99.90;;;;;;4980565;28;19934;-83
2022/10/30 18:27:43;;;;;;;;;;;21.60;99.90;;;;;;4981002;28;19926;-83
2022/10/30 18:30:11;;;;;;;;;;;21.60;99.90;;;;;;4980097;28;19973;-82
2022/10/30 18:32:37;;;;;;;;;;;21.60;99.90;;;;;;4981020;28;19926;-82
2022/10/30 18:35:10;;;;;;;;;;;21.60;99.90;;;;;;4979504;28;19950;-82
2022/10/30 18:37:36;;;;;;;;;;;21.60;99.90;;;;;;4980245;28;19930;-82
2022/10/30 18:40:03;;;;;;;;;;;21.60;99.90;;;;;;4977556;28;19926;-84
2022/10/30 18:42:30;;;;;;;;;;;21.60;99.90;;;;;;4979875;28;19926;-84
2022/10/30 18:44:58;;;;;;;;;;;21.60;99.90;;;;;;4979415;28;19930;-84
2022/10/30 18:47:24;;;;;;;;;;;21.60;99.90;;;;;;4979190;28;19926;-84
2022/10/30 18:49:51;;;;;;;;;;;21.60;99.90;;;;;;4979038;28;19926;-84
2022/10/30 18:52:17;;;;;;;;;;;21.20;99.90;;;;;;4980158;28;19925;-83
2022/10/30 18:54:44;;;;;;;;;;;21.60;99.90;;;;;;4979589;28;19930;-83
2022/10/30 18:57:10;;;;;;;;;;;21.50;99.90;;;;;;4979029;28;19926;-83
2022/10/30 18:59:37;;;;;;;;;;;21.50;99.90;;;;;;4979527;28;19937;-83
2022/10/30 19:02:13;;;;;;;;;;;21.60;99.90;;;;;;4981715;28;19926;-83
2022/10/30 19:04:40;;;;;;;;;;;21.50;99.90;;;;;;4981558;28;20394;-83
2022/10/30 19:07:08;;;;;;;;;;;21.50;99.90;;;;;;4981510;28;19930;-83
2022/10/30 19:09:34;;;;;;;;;;;21.40;99.90;;;;;;4980978;28;19926;-83
2022/10/30 19:12:01;;;;;;;;;;;21.80;99.90;;;;;;4979256;28;19926;-84
2022/10/30 19:14:27;;;;;;;;;;;21.20;99.90;;;;;;4978256;28;20382;-84
2022/10/30 19:16:54;;;;;;;;;;;21.50;99.90;;;;;;4978552;28;20314;-84
2022/10/30 19:19:22;;;;;;;;;;;21.50;99.90;;;;;;4978570;28;20297;-84
2022/10/30 19:21:49;;;;;;;;;;;21.50;99.90;;;;;;4978451;28;19933;-84
2022/10/30 19:24:16;;;;;;;;;;;21.50;99.90;;;;;;4978423;28;19934;-84
2022/10/30 19:26:43;;;;;;;;;;;21.50;99.90;;;;;;4978418;28;20001;-84
2022/10/30 19:29:09;;;;;;;;;;;21.60;99.90;;;;;;4977916;28;19926;-84
2022/10/30 19:31:36;;;;;;;;;;;22.20;99.90;;;;;;4978677;28;19926;-84
2022/10/30 19:34:03;;;;;;;;;;;21.60;99.90;;;;;;4979765;28;19934;-84
2022/10/30 19:36:32;;;;;;;;;;;21.50;99.90;;;;;;4981716;28;19926;-84
2022/10/30 19:38:59;;;;;;;;;;;21.50;99.90;;;;;;4982068;28;19980;-81
2022/10/30 19:41:26;;;;;;;;;;;21.50;99.90;;;;;;4980479;28;19927;-82